sensor_id;sensor_type;location;lat;lon;timestamp;P1;durP1;ratioP1;P2;durP2;ratioP2
69621;SDS011;56841;55.964;37.674;2022-09-17T00:01:14;17.92;;;7.68;;
69621;SDS011;56841;55.964;37.674;2022-09-17T00:03:41;12.48;;;5.57;;
69621;SDS011;56841;55.964;37.674;2022-09-17T00:06:09;19.00;;;7.90;;
69621;SDS011;56841;55.964;37.674;2022-09-17T00:08:37;15.55;;;6.88;;
69621;SDS011;56841;55.964;37.674;2022-09-17T00:11:05;18.38;;;7.20;;
69621;SDS011;56841;55.964;37.674;2022-09-17T00:13:38;11.98;;;5.25;;
69621;SDS011;56841;55.964;37.674;2022-09-17T00:16:04;17.23;;;7.40;;
69621;SDS011;56841;55.964;37.674;2022-09-17T00:18:30;14.07;;;5.82;;
69621;SDS011;56841;55.964;37.674;2022-09-17T00:20:56;9.63;;;3.95;;
69621;SDS011;56841;55.964;37.674;2022-09-17T00:23:22;10.20;;;4.18;;
69621;SDS011;56841;55.964;37.674;2022-09-17T00:25:48;10.20;;;4.35;;
69621;SDS011;56841;55.964;37.674;2022-09-17T00:28:14;9.93;;;4.63;;
69621;SDS011;56841;55.964;37.674;2022-09-17T00:30:40;15.50;;;6.80;;
69621;SDS011;56841;55.964;37.674;2022-09-17T00:33:10;14.20;;;5.35;;
69621;SDS011;56841;55.964;37.674;2022-09-17T00:35:37;17.10;;;7.90;;
69621;SDS011;56841;55.964;37.674;2022-09-17T00:38:03;16.25;;;7.05;;
69621;SDS011;56841;55.964;37.674;2022-09-17T00:40:29;12.02;;;5.50;;
69621;SDS011;56841;55.964;37.674;2022-09-17T00:42:55;19.45;;;7.32;;
69621;SDS011;56841;55.964;37.674;2022-09-17T00:45:23;24.38;;;9.13;;
69621;SDS011;56841;55.964;37.674;2022-09-17T00:47:51;14.82;;;5.93;;
69621;SDS011;56841;55.964;37.674;2022-09-17T00:53:07;17.23;;;5.97;;
69621;SDS011;56841;55.964;37.674;2022-09-17T00:55:36;19.75;;;8.57;;
69621;SDS011;56841;55.964;37.674;2022-09-17T00:58:05;17.60;;;7.65;;
69621;SDS011;56841;55.964;37.674;2022-09-17T01:00:34;29.08;;;10.88;;
69621;SDS011;56841;55.964;37.674;2022-09-17T01:02:59;24.35;;;9.75;;
69621;SDS011;56841;55.964;37.674;2022-09-17T01:19:09;17.50;;;7.28;;
69621;SDS011;56841;55.964;37.674;2022-09-17T01:24:54;21.27;;;8.18;;
69621;SDS011;56841;55.964;37.674;2022-09-17T01:38:50;9.82;;;4.15;;
69621;SDS011;56841;55.964;37.674;2022-09-17T01:41:25;23.85;;;8.90;;
69621;SDS011;56841;55.964;37.674;2022-09-17T01:44:07;16.95;;;5.93;;
69621;SDS011;56841;55.964;37.674;2022-09-17T01:46:56;17.17;;;6.78;;
69621;SDS011;56841;55.964;37.674;2022-09-17T01:49:29;9.90;;;4.82;;
69621;SDS011;56841;55.964;37.674;2022-09-17T01:51:57;7.93;;;4.28;;
69621;SDS011;56841;55.964;37.674;2022-09-17T01:54:26;10.85;;;4.80;;
69621;SDS011;56841;55.964;37.674;2022-09-17T01:57:03;8.75;;;3.90;;
69621;SDS011;56841;55.964;37.674;2022-09-17T01:59:33;10.85;;;5.13;;
69621;SDS011;56841;55.964;37.674;2022-09-17T02:02:07;8.18;;;3.95;;
69621;SDS011;56841;55.964;37.674;2022-09-17T02:04:47;9.65;;;4.70;;
69621;SDS011;56841;55.964;37.674;2022-09-17T02:07:20;11.63;;;4.93;;
69621;SDS011;56841;55.964;37.674;2022-09-17T02:09:58;6.65;;;3.10;;
69621;SDS011;56841;55.964;37.674;2022-09-17T02:12:34;9.27;;;4.75;;
69621;SDS011;56841;55.964;37.674;2022-09-17T02:15:07;10.18;;;4.45;;
69621;SDS011;56841;55.964;37.674;2022-09-17T02:17:41;9.80;;;4.80;;
69621;SDS011;56841;55.964;37.674;2022-09-17T02:20:10;10.65;;;5.30;;
69621;SDS011;56841;55.964;37.674;2022-09-17T02:25:25;12.80;;;5.53;;
69621;SDS011;56841;55.964;37.674;2022-09-17T02:30:29;11.77;;;5.03;;
69621;SDS011;56841;55.964;37.674;2022-09-17T02:32:56;13.23;;;6.05;;
69621;SDS011;56841;55.964;37.674;2022-09-17T02:35:22;6.57;;;3.58;;
69621;SDS011;56841;55.964;37.674;2022-09-17T02:37:48;9.73;;;4.25;;
69621;SDS011;56841;55.964;37.674;2022-09-17T02:40:15;10.90;;;5.32;;
69621;SDS011;56841;55.964;37.674;2022-09-17T02:50:51;11.02;;;5.55;;
69621;SDS011;56841;55.964;37.674;2022-09-17T02:56:21;11.18;;;4.82;;
69621;SDS011;56841;55.964;37.674;2022-09-17T02:58:59;8.48;;;3.65;;
69621;SDS011;56841;55.964;37.674;2022-09-17T03:03:56;5.60;;;2.78;;
69621;SDS011;56841;55.964;37.674;2022-09-17T03:06:26;6.85;;;3.10;;
69621;SDS011;56841;55.964;37.674;2022-09-17T03:08:52;7.47;;;3.50;;
69621;SDS011;56841;55.964;37.674;2022-09-17T03:11:18;6.45;;;3.10;;
69621;SDS011;56841;55.964;37.674;2022-09-17T03:13:43;8.52;;;3.63;;
69621;SDS011;56841;55.964;37.674;2022-09-17T03:16:09;9.45;;;4.05;;
69621;SDS011;56841;55.964;37.674;2022-09-17T03:18:35;7.65;;;3.65;;
69621;SDS011;56841;55.964;37.674;2022-09-17T03:21:01;34.60;;;3.67;;
69621;SDS011;56841;55.964;37.674;2022-09-17T03:23:27;11.95;;;4.60;;
69621;SDS011;56841;55.964;37.674;2022-09-17T03:25:53;5.97;;;3.05;;
69621;SDS011;56841;55.964;37.674;2022-09-17T03:28:19;9.65;;;4.25;;
69621;SDS011;56841;55.964;37.674;2022-09-17T03:30:45;8.45;;;3.75;;
69621;SDS011;56841;55.964;37.674;2022-09-17T03:33:11;10.93;;;5.03;;
69621;SDS011;56841;55.964;37.674;2022-09-17T03:35:37;10.27;;;5.05;;
69621;SDS011;56841;55.964;37.674;2022-09-17T03:38:07;9.93;;;4.82;;
69621;SDS011;56841;55.964;37.674;2022-09-17T03:40:32;7.35;;;3.88;;
69621;SDS011;56841;55.964;37.674;2022-09-17T03:42:58;6.85;;;3.38;;
69621;SDS011;56841;55.964;37.674;2022-09-17T03:45:24;8.93;;;4.05;;
69621;SDS011;56841;55.964;37.674;2022-09-17T03:47:50;12.52;;;5.28;;
69621;SDS011;56841;55.964;37.674;2022-09-17T03:50:16;8.35;;;3.78;;
69621;SDS011;56841;55.964;37.674;2022-09-17T03:52:42;7.55;;;4.07;;
69621;SDS011;56841;55.964;37.674;2022-09-17T03:55:08;9.45;;;4.60;;
69621;SDS011;56841;55.964;37.674;2022-09-17T03:57:36;10.35;;;5.10;;
69621;SDS011;56841;55.964;37.674;2022-09-17T04:00:02;8.93;;;4.60;;
69621;SDS011;56841;55.964;37.674;2022-09-17T04:02:37;9.82;;;4.07;;
69621;SDS011;56841;55.964;37.674;2022-09-17T04:05:03;7.75;;;3.78;;
69621;SDS011;56841;55.964;37.674;2022-09-17T04:07:29;9.00;;;3.95;;
69621;SDS011;56841;55.964;37.674;2022-09-17T04:09:55;9.40;;;4.50;;
69621;SDS011;56841;55.964;37.674;2022-09-17T04:12:21;7.68;;;3.83;;
69621;SDS011;56841;55.964;37.674;2022-09-17T04:14:46;8.73;;;4.30;;
69621;SDS011;56841;55.964;37.674;2022-09-17T04:17:12;8.60;;;4.28;;
69621;SDS011;56841;55.964;37.674;2022-09-17T04:19:43;12.30;;;4.60;;
69621;SDS011;56841;55.964;37.674;2022-09-17T04:22:09;10.25;;;4.55;;
69621;SDS011;56841;55.964;37.674;2022-09-17T04:24:35;7.65;;;3.75;;
69621;SDS011;56841;55.964;37.674;2022-09-17T04:27:01;11.05;;;5.78;;
69621;SDS011;56841;55.964;37.674;2022-09-17T04:29:27;8.30;;;4.45;;
69621;SDS011;56841;55.964;37.674;2022-09-17T04:31:53;10.57;;;4.30;;
69621;SDS011;56841;55.964;37.674;2022-09-17T04:34:19;9.82;;;5.45;;
69621;SDS011;56841;55.964;37.674;2022-09-17T04:36:44;11.32;;;6.60;;
69621;SDS011;56841;55.964;37.674;2022-09-17T04:39:10;12.63;;;6.47;;
69621;SDS011;56841;55.964;37.674;2022-09-17T04:41:36;13.88;;;5.55;;
69621;SDS011;56841;55.964;37.674;2022-09-17T04:44:02;9.00;;;5.25;;
69621;SDS011;56841;55.964;37.674;2022-09-17T04:46:28;12.18;;;6.40;;
69621;SDS011;56841;55.964;37.674;2022-09-17T04:48:54;7.90;;;4.10;;
69621;SDS011;56841;55.964;37.674;2022-09-17T04:51:19;8.75;;;4.40;;
69621;SDS011;56841;55.964;37.674;2022-09-17T04:53:45;9.65;;;3.63;;
69621;SDS011;56841;55.964;37.674;2022-09-17T04:56:11;9.35;;;5.15;;
69621;SDS011;56841;55.964;37.674;2022-09-17T04:58:37;7.70;;;4.20;;
69621;SDS011;56841;55.964;37.674;2022-09-17T05:01:03;7.30;;;3.92;;
69621;SDS011;56841;55.964;37.674;2022-09-17T05:03:29;7.93;;;3.63;;
69621;SDS011;56841;55.964;37.674;2022-09-17T05:05:55;7.97;;;3.30;;
69621;SDS011;56841;55.964;37.674;2022-09-17T05:08:21;5.82;;;2.67;;
69621;SDS011;56841;55.964;37.674;2022-09-17T05:10:49;5.90;;;3.03;;
69621;SDS011;56841;55.964;37.674;2022-09-17T05:13:15;6.13;;;2.65;;
69621;SDS011;56841;55.964;37.674;2022-09-17T05:15:41;8.73;;;4.05;;
69621;SDS011;56841;55.964;37.674;2022-09-17T05:18:07;8.85;;;4.32;;
69621;SDS011;56841;55.964;37.674;2022-09-17T05:20:33;6.20;;;2.83;;
69621;SDS011;56841;55.964;37.674;2022-09-17T05:22:59;6.53;;;3.30;;
69621;SDS011;56841;55.964;37.674;2022-09-17T05:25:25;8.68;;;2.92;;
69621;SDS011;56841;55.964;37.674;2022-09-17T05:27:51;8.90;;;3.15;;
69621;SDS011;56841;55.964;37.674;2022-09-17T05:30:18;9.45;;;3.10;;
69621;SDS011;56841;55.964;37.674;2022-09-17T05:32:44;6.68;;;3.13;;
69621;SDS011;56841;55.964;37.674;2022-09-17T05:35:09;7.72;;;3.80;;
69621;SDS011;56841;55.964;37.674;2022-09-17T05:37:35;6.30;;;3.15;;
69621;SDS011;56841;55.964;37.674;2022-09-17T05:40:02;8.50;;;3.88;;
69621;SDS011;56841;55.964;37.674;2022-09-17T05:42:31;5.45;;;3.08;;
69621;SDS011;56841;55.964;37.674;2022-09-17T05:44:57;6.20;;;2.55;;
69621;SDS011;56841;55.964;37.674;2022-09-17T05:47:22;7.30;;;3.10;;
69621;SDS011;56841;55.964;37.674;2022-09-17T05:49:48;7.28;;;2.50;;
69621;SDS011;56841;55.964;37.674;2022-09-17T05:52:14;7.28;;;3.53;;
69621;SDS011;56841;55.964;37.674;2022-09-17T05:54:40;8.32;;;3.40;;
69621;SDS011;56841;55.964;37.674;2022-09-17T05:57:06;6.65;;;2.90;;
69621;SDS011;56841;55.964;37.674;2022-09-17T05:59:32;8.15;;;2.80;;
69621;SDS011;56841;55.964;37.674;2022-09-17T06:01:58;7.57;;;3.20;;
69621;SDS011;56841;55.964;37.674;2022-09-17T06:04:24;6.80;;;2.97;;
69621;SDS011;56841;55.964;37.674;2022-09-17T06:06:50;9.90;;;3.55;;
69621;SDS011;56841;55.964;37.674;2022-09-17T06:09:15;7.95;;;2.90;;
69621;SDS011;56841;55.964;37.674;2022-09-17T06:11:41;9.77;;;3.20;;
69621;SDS011;56841;55.964;37.674;2022-09-17T06:14:07;6.75;;;2.63;;
69621;SDS011;56841;55.964;37.674;2022-09-17T06:16:34;6.10;;;2.28;;
69621;SDS011;56841;55.964;37.674;2022-09-17T06:18:59;7.70;;;2.70;;
69621;SDS011;56841;55.964;37.674;2022-09-17T06:21:25;6.90;;;2.58;;
69621;SDS011;56841;55.964;37.674;2022-09-17T06:23:51;4.13;;;1.77;;
69621;SDS011;56841;55.964;37.674;2022-09-17T06:26:17;4.45;;;1.55;;
69621;SDS011;56841;55.964;37.674;2022-09-17T06:28:43;5.57;;;2.05;;
69621;SDS011;56841;55.964;37.674;2022-09-17T06:31:10;4.53;;;1.88;;
69621;SDS011;56841;55.964;37.674;2022-09-17T06:33:37;5.68;;;1.92;;
69621;SDS011;56841;55.964;37.674;2022-09-17T06:36:04;6.85;;;2.88;;
69621;SDS011;56841;55.964;37.674;2022-09-17T06:38:32;4.93;;;1.98;;
69621;SDS011;56841;55.964;37.674;2022-09-17T06:40:59;6.28;;;2.20;;
69621;SDS011;56841;55.964;37.674;2022-09-17T06:43:25;4.20;;;2.20;;
69621;SDS011;56841;55.964;37.674;2022-09-17T06:45:52;3.17;;;1.45;;
69621;SDS011;56841;55.964;37.674;2022-09-17T06:48:19;3.53;;;1.80;;
69621;SDS011;56841;55.964;37.674;2022-09-17T06:50:46;3.45;;;1.13;;
69621;SDS011;56841;55.964;37.674;2022-09-17T06:53:13;3.75;;;1.50;;
69621;SDS011;56841;55.964;37.674;2022-09-17T06:55:39;3.40;;;1.65;;
69621;SDS011;56841;55.964;37.674;2022-09-17T06:58:05;6.13;;;1.85;;
69621;SDS011;56841;55.964;37.674;2022-09-17T07:00:31;3.35;;;1.23;;
69621;SDS011;56841;55.964;37.674;2022-09-17T07:02:57;4.38;;;1.50;;
69621;SDS011;56841;55.964;37.674;2022-09-17T07:05:25;5.28;;;1.80;;
69621;SDS011;56841;55.964;37.674;2022-09-17T07:07:53;3.42;;;1.42;;
69621;SDS011;56841;55.964;37.674;2022-09-17T07:10:19;4.15;;;1.48;;
69621;SDS011;56841;55.964;37.674;2022-09-17T07:12:47;2.67;;;1.33;;
69621;SDS011;56841;55.964;37.674;2022-09-17T07:15:13;3.60;;;1.70;;
69621;SDS011;56841;55.964;37.674;2022-09-17T07:17:40;3.72;;;1.20;;
69621;SDS011;56841;55.964;37.674;2022-09-17T07:20:09;1.85;;;1.00;;
69621;SDS011;56841;55.964;37.674;2022-09-17T07:22:35;5.03;;;1.25;;
69621;SDS011;56841;55.964;37.674;2022-09-17T07:25:02;7.47;;;1.75;;
69621;SDS011;56841;55.964;37.674;2022-09-17T07:27:29;5.18;;;1.50;;
69621;SDS011;56841;55.964;37.674;2022-09-17T07:29:56;4.82;;;1.55;;
69621;SDS011;56841;55.964;37.674;2022-09-17T07:32:22;4.22;;;1.40;;
69621;SDS011;56841;55.964;37.674;2022-09-17T07:34:48;3.83;;;1.50;;
69621;SDS011;56841;55.964;37.674;2022-09-17T07:37:15;3.58;;;1.30;;
69621;SDS011;56841;55.964;37.674;2022-09-17T07:39:41;4.60;;;1.60;;
69621;SDS011;56841;55.964;37.674;2022-09-17T07:42:07;3.15;;;1.27;;
69621;SDS011;56841;55.964;37.674;2022-09-17T07:44:33;4.47;;;1.50;;
69621;SDS011;56841;55.964;37.674;2022-09-17T07:46:59;3.08;;;1.42;;
69621;SDS011;56841;55.964;37.674;2022-09-17T07:49:25;5.13;;;1.42;;
69621;SDS011;56841;55.964;37.674;2022-09-17T07:51:51;5.65;;;1.20;;
69621;SDS011;56841;55.964;37.674;2022-09-17T07:54:19;6.63;;;1.52;;
69621;SDS011;56841;55.964;37.674;2022-09-17T07:56:45;3.88;;;1.20;;
69621;SDS011;56841;55.964;37.674;2022-09-17T07:59:11;5.70;;;1.42;;
69621;SDS011;56841;55.964;37.674;2022-09-17T08:01:36;3.30;;;1.25;;
69621;SDS011;56841;55.964;37.674;2022-09-17T08:04:02;2.92;;;1.30;;
69621;SDS011;56841;55.964;37.674;2022-09-17T08:06:28;5.97;;;1.30;;
69621;SDS011;56841;55.964;37.674;2022-09-17T08:08:55;4.40;;;1.13;;
69621;SDS011;56841;55.964;37.674;2022-09-17T08:11:22;2.63;;;1.10;;
69621;SDS011;56841;55.964;37.674;2022-09-17T08:13:50;3.38;;;1.25;;
69621;SDS011;56841;55.964;37.674;2022-09-17T08:16:18;4.55;;;1.48;;
69621;SDS011;56841;55.964;37.674;2022-09-17T08:18:45;5.15;;;1.45;;
69621;SDS011;56841;55.964;37.674;2022-09-17T08:21:12;5.00;;;1.23;;
69621;SDS011;56841;55.964;37.674;2022-09-17T08:23:45;3.08;;;1.13;;
69621;SDS011;56841;55.964;37.674;2022-09-17T08:26:14;5.47;;;1.42;;
69621;SDS011;56841;55.964;37.674;2022-09-17T08:28:46;4.93;;;1.40;;
69621;SDS011;56841;55.964;37.674;2022-09-17T08:31:14;4.20;;;1.10;;
69621;SDS011;56841;55.964;37.674;2022-09-17T08:33:44;3.60;;;1.25;;
69621;SDS011;56841;55.964;37.674;2022-09-17T08:36:12;2.03;;;0.70;;
69621;SDS011;56841;55.964;37.674;2022-09-17T08:38:40;2.95;;;1.17;;
69621;SDS011;56841;55.964;37.674;2022-09-17T08:46:18;4.53;;;1.13;;
69621;SDS011;56841;55.964;37.674;2022-09-17T08:48:45;5.05;;;1.30;;
69621;SDS011;56841;55.964;37.674;2022-09-17T08:51:34;3.00;;;1.10;;
69621;SDS011;56841;55.964;37.674;2022-09-17T08:54:25;3.85;;;1.20;;
69621;SDS011;56841;55.964;37.674;2022-09-17T08:57:08;2.45;;;0.98;;
69621;SDS011;56841;55.964;37.674;2022-09-17T09:02:44;4.40;;;1.23;;
69621;SDS011;56841;55.964;37.674;2022-09-17T09:10:50;7.07;;;1.30;;
69621;SDS011;56841;55.964;37.674;2022-09-17T09:13:20;5.97;;;1.10;;
69621;SDS011;56841;55.964;37.674;2022-09-17T09:15:58;3.53;;;1.30;;
69621;SDS011;56841;55.964;37.674;2022-09-17T09:18:32;6.40;;;1.15;;
69621;SDS011;56841;55.964;37.674;2022-09-17T09:21:45;6.18;;;1.10;;
69621;SDS011;56841;55.964;37.674;2022-09-17T09:24:06;5.45;;;1.33;;
69621;SDS011;56841;55.964;37.674;2022-09-17T09:26:45;4.43;;;1.35;;
69621;SDS011;56841;55.964;37.674;2022-09-17T09:34:55;3.45;;;0.90;;
69621;SDS011;56841;55.964;37.674;2022-09-17T09:37:32;5.32;;;1.08;;
69621;SDS011;56841;55.964;37.674;2022-09-17T09:40:15;4.00;;;0.88;;
69621;SDS011;56841;55.964;37.674;2022-09-17T09:42:51;2.63;;;0.80;;
69621;SDS011;56841;55.964;37.674;2022-09-17T09:48:13;1.92;;;0.63;;
69621;SDS011;56841;55.964;37.674;2022-09-17T09:53:50;5.97;;;1.10;;
69621;SDS011;56841;55.964;37.674;2022-09-17T09:58:56;2.90;;;1.10;;
69621;SDS011;56841;55.964;37.674;2022-09-17T10:01:24;5.25;;;1.15;;
69621;SDS011;56841;55.964;37.674;2022-09-17T10:03:53;3.35;;;1.10;;
69621;SDS011;56841;55.964;37.674;2022-09-17T10:06:23;3.00;;;0.95;;
69621;SDS011;56841;55.964;37.674;2022-09-17T10:11:26;2.17;;;0.70;;
69621;SDS011;56841;55.964;37.674;2022-09-17T10:22:39;2.53;;;0.90;;
69621;SDS011;56841;55.964;37.674;2022-09-17T10:25:28;2.38;;;0.70;;
69621;SDS011;56841;55.964;37.674;2022-09-17T10:27:58;3.83;;;1.00;;
69621;SDS011;56841;55.964;37.674;2022-09-17T10:30:27;2.13;;;0.95;;
69621;SDS011;56841;55.964;37.674;2022-09-17T10:33:11;1.70;;;0.75;;
69621;SDS011;56841;55.964;37.674;2022-09-17T10:35:41;4.20;;;0.73;;
69621;SDS011;56841;55.964;37.674;2022-09-17T10:38:29;4.07;;;0.90;;
69621;SDS011;56841;55.964;37.674;2022-09-17T10:43:40;3.92;;;0.88;;
69621;SDS011;56841;55.964;37.674;2022-09-17T10:46:09;2.05;;;0.60;;
69621;SDS011;56841;55.964;37.674;2022-09-17T10:48:42;2.92;;;0.70;;
69621;SDS011;56841;55.964;37.674;2022-09-17T10:51:18;1.98;;;0.57;;
69621;SDS011;56841;55.964;37.674;2022-09-17T10:56:39;2.00;;;0.60;;
69621;SDS011;56841;55.964;37.674;2022-09-17T10:59:15;2.78;;;1.02;;
69621;SDS011;56841;55.964;37.674;2022-09-17T11:04:53;3.70;;;0.82;;
69621;SDS011;56841;55.964;37.674;2022-09-17T11:07:52;2.33;;;1.00;;
69621;SDS011;56841;55.964;37.674;2022-09-17T11:10:26;3.05;;;1.00;;
69621;SDS011;56841;55.964;37.674;2022-09-17T11:13:10;2.47;;;0.73;;
69621;SDS011;56841;55.964;37.674;2022-09-17T11:18:55;2.38;;;0.82;;
69621;SDS011;56841;55.964;37.674;2022-09-17T11:21:49;3.55;;;1.10;;
69621;SDS011;56841;55.964;37.674;2022-09-17T11:24:51;4.30;;;0.90;;
69621;SDS011;56841;55.964;37.674;2022-09-17T11:27:43;3.92;;;0.90;;
69621;SDS011;56841;55.964;37.674;2022-09-17T11:30:17;1.50;;;0.70;;
69621;SDS011;56841;55.964;37.674;2022-09-17T11:32:50;2.53;;;0.88;;
69621;SDS011;56841;55.964;37.674;2022-09-17T11:35:30;4.75;;;1.00;;
69621;SDS011;56841;55.964;37.674;2022-09-17T11:40:42;2.83;;;0.73;;
69621;SDS011;56841;55.964;37.674;2022-09-17T11:45:54;2.55;;;0.80;;
69621;SDS011;56841;55.964;37.674;2022-09-17T11:51:29;1.45;;;0.63;;
69621;SDS011;56841;55.964;37.674;2022-09-17T11:56:30;3.15;;;0.93;;
69621;SDS011;56841;55.964;37.674;2022-09-17T12:06:45;1.85;;;0.80;;
69621;SDS011;56841;55.964;37.674;2022-09-17T12:09:21;3.70;;;0.80;;
69621;SDS011;56841;55.964;37.674;2022-09-17T12:14:29;2.40;;;0.93;;
69621;SDS011;56841;55.964;37.674;2022-09-17T12:17:10;3.00;;;0.77;;
69621;SDS011;56841;55.964;37.674;2022-09-17T12:19:49;3.85;;;0.90;;
69621;SDS011;56841;55.964;37.674;2022-09-17T12:22:24;2.45;;;0.70;;
69621;SDS011;56841;55.964;37.674;2022-09-17T12:24:54;2.95;;;0.73;;
69621;SDS011;56841;55.964;37.674;2022-09-17T12:27:35;3.13;;;1.20;;
69621;SDS011;56841;55.964;37.674;2022-09-17T12:30:19;3.33;;;1.00;;
69621;SDS011;56841;55.964;37.674;2022-09-17T12:35:40;5.65;;;1.10;;
69621;SDS011;56841;55.964;37.674;2022-09-17T12:40:50;2.15;;;0.80;;
69621;SDS011;56841;55.964;37.674;2022-09-17T12:54:37;5.20;;;2.33;;
69621;SDS011;56841;55.964;37.674;2022-09-17T12:59:52;5.53;;;1.33;;
69621;SDS011;56841;55.964;37.674;2022-09-17T13:02:42;2.33;;;0.90;;
69621;SDS011;56841;55.964;37.674;2022-09-17T13:22:07;2.50;;;0.80;;
69621;SDS011;56841;55.964;37.674;2022-09-17T13:24:41;4.20;;;1.08;;
69621;SDS011;56841;55.964;37.674;2022-09-17T13:27:22;6.97;;;2.03;;
69621;SDS011;56841;55.964;37.674;2022-09-17T13:37:41;3.65;;;1.50;;
69621;SDS011;56841;55.964;37.674;2022-09-17T13:40:23;2.85;;;0.95;;
69621;SDS011;56841;55.964;37.674;2022-09-17T13:45:30;2.97;;;1.20;;
69621;SDS011;56841;55.964;37.674;2022-09-17T13:48:08;3.70;;;1.67;;
69621;SDS011;56841;55.964;37.674;2022-09-17T13:50:40;2.40;;;1.10;;
69621;SDS011;56841;55.964;37.674;2022-09-17T13:55:47;4.03;;;1.40;;
69621;SDS011;56841;55.964;37.674;2022-09-17T14:13:47;5.63;;;2.05;;
69621;SDS011;56841;55.964;37.674;2022-09-17T14:21:42;5.47;;;1.58;;
69621;SDS011;56841;55.964;37.674;2022-09-17T14:24:43;6.00;;;2.17;;
69621;SDS011;56841;55.964;37.674;2022-09-17T14:30:05;2.38;;;0.90;;
69621;SDS011;56841;55.964;37.674;2022-09-17T14:37:39;3.97;;;1.48;;
69621;SDS011;56841;55.964;37.674;2022-09-17T14:40:08;4.65;;;1.90;;
69621;SDS011;56841;55.964;37.674;2022-09-17T14:42:37;3.72;;;1.50;;
69621;SDS011;56841;55.964;37.674;2022-09-17T14:45:13;8.68;;;2.00;;
69621;SDS011;56841;55.964;37.674;2022-09-17T14:47:44;4.10;;;1.58;;
69621;SDS011;56841;55.964;37.674;2022-09-17T14:50:18;4.35;;;0.98;;
69621;SDS011;56841;55.964;37.674;2022-09-17T14:52:46;2.75;;;0.90;;
69621;SDS011;56841;55.964;37.674;2022-09-17T14:55:18;1.30;;;0.63;;
69621;SDS011;56841;55.964;37.674;2022-09-17T14:57:58;3.08;;;1.20;;
69621;SDS011;56841;55.964;37.674;2022-09-17T15:00:33;1.65;;;0.70;;
69621;SDS011;56841;55.964;37.674;2022-09-17T15:03:02;3.47;;;0.95;;
69621;SDS011;56841;55.964;37.674;2022-09-17T15:05:29;3.80;;;1.10;;
69621;SDS011;56841;55.964;37.674;2022-09-17T15:08:11;5.07;;;0.80;;
69621;SDS011;56841;55.964;37.674;2022-09-17T15:10:47;5.47;;;1.40;;
69621;SDS011;56841;55.964;37.674;2022-09-17T15:13:22;2.22;;;0.90;;
69621;SDS011;56841;55.964;37.674;2022-09-17T15:15:58;4.30;;;0.88;;
69621;SDS011;56841;55.964;37.674;2022-09-17T15:18:37;5.50;;;0.90;;
69621;SDS011;56841;55.964;37.674;2022-09-17T15:21:09;4.15;;;1.42;;
69621;SDS011;56841;55.964;37.674;2022-09-17T15:23:52;4.25;;;1.55;;
69621;SDS011;56841;55.964;37.674;2022-09-17T15:26:21;5.85;;;2.63;;
69621;SDS011;56841;55.964;37.674;2022-09-17T15:28:56;8.55;;;3.10;;
69621;SDS011;56841;55.964;37.674;2022-09-17T15:31:23;6.55;;;2.10;;
69621;SDS011;56841;55.964;37.674;2022-09-17T15:33:49;6.85;;;2.15;;
69621;SDS011;56841;55.964;37.674;2022-09-17T15:36:22;6.85;;;1.80;;
69621;SDS011;56841;55.964;37.674;2022-09-17T15:38:49;6.75;;;1.85;;
69621;SDS011;56841;55.964;37.674;2022-09-17T15:41:34;9.20;;;2.72;;
69621;SDS011;56841;55.964;37.674;2022-09-17T15:44:05;10.40;;;4.20;;
69621;SDS011;56841;55.964;37.674;2022-09-17T15:46:45;15.60;;;6.45;;
69621;SDS011;56841;55.964;37.674;2022-09-17T15:49:30;12.63;;;6.82;;
69621;SDS011;56841;55.964;37.674;2022-09-17T15:52:23;9.88;;;3.50;;
69621;SDS011;56841;55.964;37.674;2022-09-17T15:54:53;7.28;;;2.80;;
69621;SDS011;56841;55.964;37.674;2022-09-17T15:57:20;6.47;;;1.92;;
69621;SDS011;56841;55.964;37.674;2022-09-17T15:59:48;9.40;;;2.85;;
69621;SDS011;56841;55.964;37.674;2022-09-17T16:02:27;8.98;;;2.10;;
69621;SDS011;56841;55.964;37.674;2022-09-17T16:05:56;7.55;;;2.42;;
69621;SDS011;56841;55.964;37.674;2022-09-17T16:07:52;11.55;;;2.97;;
69621;SDS011;56841;55.964;37.674;2022-09-17T16:10:19;11.57;;;2.70;;
69621;SDS011;56841;55.964;37.674;2022-09-17T16:12:45;8.15;;;2.53;;
69621;SDS011;56841;55.964;37.674;2022-09-17T16:15:14;11.38;;;2.50;;
69621;SDS011;56841;55.964;37.674;2022-09-17T16:17:42;7.25;;;2.15;;
69621;SDS011;56841;55.964;37.674;2022-09-17T16:20:20;6.50;;;2.53;;
69621;SDS011;56841;55.964;37.674;2022-09-17T16:22:51;6.75;;;1.80;;
69621;SDS011;56841;55.964;37.674;2022-09-17T16:25:18;9.05;;;2.60;;
69621;SDS011;56841;55.964;37.674;2022-09-17T16:28:11;7.28;;;2.35;;
69621;SDS011;56841;55.964;37.674;2022-09-17T16:30:43;6.32;;;1.90;;
69621;SDS011;56841;55.964;37.674;2022-09-17T16:33:11;5.03;;;2.40;;
69621;SDS011;56841;55.964;37.674;2022-09-17T16:35:38;9.40;;;2.30;;
69621;SDS011;56841;55.964;37.674;2022-09-17T16:38:05;11.15;;;2.63;;
69621;SDS011;56841;55.964;37.674;2022-09-17T16:40:31;8.88;;;2.58;;
69621;SDS011;56841;55.964;37.674;2022-09-17T16:43:01;8.57;;;2.72;;
69621;SDS011;56841;55.964;37.674;2022-09-17T16:45:28;7.70;;;2.53;;
69621;SDS011;56841;55.964;37.674;2022-09-17T16:47:55;5.50;;;2.30;;
69621;SDS011;56841;55.964;37.674;2022-09-17T16:50:21;8.25;;;2.47;;
69621;SDS011;56841;55.964;37.674;2022-09-17T16:52:48;7.18;;;2.67;;
69621;SDS011;56841;55.964;37.674;2022-09-17T16:55:14;5.82;;;2.03;;
69621;SDS011;56841;55.964;37.674;2022-09-17T16:57:41;6.22;;;2.38;;
69621;SDS011;56841;55.964;37.674;2022-09-17T17:00:08;5.93;;;2.08;;
69621;SDS011;56841;55.964;37.674;2022-09-17T17:02:37;6.38;;;2.60;;
69621;SDS011;56841;55.964;37.674;2022-09-17T17:05:03;9.07;;;2.80;;
69621;SDS011;56841;55.964;37.674;2022-09-17T17:07:30;8.52;;;2.85;;
69621;SDS011;56841;55.964;37.674;2022-09-17T17:09:57;11.13;;;3.40;;
69621;SDS011;56841;55.964;37.674;2022-09-17T17:12:24;8.00;;;2.88;;
69621;SDS011;56841;55.964;37.674;2022-09-17T17:14:51;11.95;;;2.42;;
69621;SDS011;56841;55.964;37.674;2022-09-17T17:17:18;6.57;;;2.47;;
69621;SDS011;56841;55.964;37.674;2022-09-17T17:19:44;10.05;;;3.20;;
69621;SDS011;56841;55.964;37.674;2022-09-17T17:22:11;7.10;;;2.63;;
69621;SDS011;56841;55.964;37.674;2022-09-17T17:24:38;6.63;;;1.88;;
69621;SDS011;56841;55.964;37.674;2022-09-17T17:27:04;10.52;;;3.08;;
69621;SDS011;56841;55.964;37.674;2022-09-17T17:29:30;6.00;;;2.22;;
69621;SDS011;56841;55.964;37.674;2022-09-17T17:31:56;9.25;;;2.75;;
69621;SDS011;56841;55.964;37.674;2022-09-17T17:34:21;7.55;;;2.75;;
69621;SDS011;56841;55.964;37.674;2022-09-17T17:36:48;8.88;;;2.72;;
69621;SDS011;56841;55.964;37.674;2022-09-17T17:39:14;6.45;;;2.25;;
69621;SDS011;56841;55.964;37.674;2022-09-17T17:41:40;12.07;;;3.28;;
69621;SDS011;56841;55.964;37.674;2022-09-17T17:44:07;7.78;;;3.00;;
69621;SDS011;56841;55.964;37.674;2022-09-17T17:46:37;7.18;;;2.63;;
69621;SDS011;56841;55.964;37.674;2022-09-17T17:49:04;8.98;;;3.00;;
69621;SDS011;56841;55.964;37.674;2022-09-17T17:51:30;8.82;;;2.75;;
69621;SDS011;56841;55.964;37.674;2022-09-17T17:53:56;7.80;;;3.08;;
69621;SDS011;56841;55.964;37.674;2022-09-17T17:56:22;7.47;;;3.00;;
69621;SDS011;56841;55.964;37.674;2022-09-17T17:58:52;8.15;;;3.30;;
69621;SDS011;56841;55.964;37.674;2022-09-17T18:01:21;7.72;;;3.40;;
69621;SDS011;56841;55.964;37.674;2022-09-17T18:03:48;6.30;;;2.65;;
69621;SDS011;56841;55.964;37.674;2022-09-17T18:06:14;8.50;;;3.13;;
69621;SDS011;56841;55.964;37.674;2022-09-17T18:08:41;5.45;;;2.20;;